sensor_id;sensor_type;location;lat;lon;timestamp;temperature;humidity
38746;DHT22;24488;0.000;0.000;2023-03-01T00:02:00;20.00;31.70
38746;DHT22;24488;0.000;0.000;2023-03-01T00:04:26;20.00;31.70
38746;DHT22;24488;0.000;0.000;2023-03-01T00:06:53;20.00;31.70
38746;DHT22;24488;0.000;0.000;2023-03-01T00:09:18;20.00;31.20
38746;DHT22;24488;0.000;0.000;2023-03-01T00:11:44;20.00;31.70
38746;DHT22;24488;0.000;0.000;2023-03-01T00:14:09;20.00;31.70
38746;DHT22;24488;0.000;0.000;2023-03-01T00:16:37;20.00;31.70
38746;DHT22;24488;0.000;0.000;2023-03-01T00:19:04;20.00;31.70
38746;DHT22;24488;0.000;0.000;2023-03-01T00:21:30;20.00;31.70
38746;DHT22;24488;0.000;0.000;2023-03-01T00:23:56;20.00;31.70
38746;DHT22;24488;0.000;0.000;2023-03-01T00:26:22;20.00;31.70
38746;DHT22;24488;0.000;0.000;2023-03-01T00:28:49;20.00;31.70
38746;DHT22;24488;0.000;0.000;2023-03-01T00:31:16;20.00;31.70
38746;DHT22;24488;0.000;0.000;2023-03-01T00:33:44;20.00;31.80
38746;DHT22;24488;0.000;0.000;2023-03-01T00:36:10;20.00;31.70
38746;DHT22;24488;0.000;0.000;2023-03-01T00:38:38;20.00;31.70
38746;DHT22;24488;0.000;0.000;2023-03-01T00:41:05;20.00;31.70
38746;DHT22;24488;0.000;0.000;2023-03-01T00:43:32;20.00;31.70
38746;DHT22;24488;0.000;0.000;2023-03-01T00:46:02;20.00;31.70
38746;DHT22;24488;0.000;0.000;2023-03-01T00:48:29;20.00;31.70
38746;DHT22;24488;0.000;0.000;2023-03-01T00:50:54;20.00;31.70
38746;DHT22;24488;0.000;0.000;2023-03-01T00:53:20;20.00;31.70
38746;DHT22;24488;0.000;0.000;2023-03-01T00:55:45;20.00;31.70
38746;DHT22;24488;0.000;0.000;2023-03-01T00:58:11;20.00;31.20
38746;DHT22;24488;0.000;0.000;2023-03-01T01:00:36;20.00;31.80
38746;DHT22;24488;0.000;0.000;2023-03-01T01:03:02;20.00;31.70
38746;DHT22;24488;0.000;0.000;2023-03-01T01:05:27;20.00;31.70
38746;DHT22;24488;0.000;0.000;2023-03-01T01:07:53;20.00;31.70
38746;DHT22;24488;0.000;0.000;2023-03-01T01:10:19;20.00;31.70
38746;DHT22;24488;0.000;0.000;2023-03-01T01:12:45;20.00;31.80
38746;DHT22;24488;0.000;0.000;2023-03-01T01:15:11;20.00;31.70
38746;DHT22;24488;0.000;0.000;2023-03-01T01:17:39;20.00;31.70
38746;DHT22;24488;0.000;0.000;2023-03-01T01:20:05;20.00;31.70
38746;DHT22;24488;0.000;0.000;2023-03-01T01:22:31;20.00;31.70
38746;DHT22;24488;0.000;0.000;2023-03-01T01:24:57;20.00;31.70
38746;DHT22;24488;0.000;0.000;2023-03-01T01:27:22;20.00;31.70
38746;DHT22;24488;0.000;0.000;2023-03-01T01:29:48;20.00;31.70
38746;DHT22;24488;0.000;0.000;2023-03-01T01:32:13;20.00;31.70
38746;DHT22;24488;0.000;0.000;2023-03-01T01:34:39;20.00;31.70
38746;DHT22;24488;0.000;0.000;2023-03-01T01:37:05;20.00;31.70
38746;DHT22;24488;0.000;0.000;2023-03-01T01:39:33;20.00;31.80
38746;DHT22;24488;0.000;0.000;2023-03-01T01:42:00;20.00;31.80
38746;DHT22;24488;0.000;0.000;2023-03-01T01:44:27;20.00;31.80
38746;DHT22;24488;0.000;0.000;2023-03-01T01:46:54;20.00;31.80
38746;DHT22;24488;0.000;0.000;2023-03-01T01:52:00;20.00;31.70
38746;DHT22;24488;0.000;0.000;2023-03-01T01:54:36;20.00;31.70
38746;DHT22;24488;0.000;0.000;2023-03-01T01:57:06;20.00;31.70
38746;DHT22;24488;0.000;0.000;2023-03-01T01:59:34;20.00;31.70
38746;DHT22;24488;0.000;0.000;2023-03-01T02:02:00;20.00;31.70
38746;DHT22;24488;0.000;0.000;2023-03-01T02:04:28;20.00;31.70
38746;DHT22;24488;0.000;0.000;2023-03-01T02:06:57;20.00;31.70
38746;DHT22;24488;0.000;0.000;2023-03-01T02:09:24;20.00;31.70
38746;DHT22;24488;0.000;0.000;2023-03-01T02:11:50;20.00;31.70
38746;DHT22;24488;0.000;0.000;2023-03-01T02:14:16;20.00;31.70
38746;DHT22;24488;0.000;0.000;2023-03-01T02:16:42;20.00;31.70
38746;DHT22;24488;0.000;0.000;2023-03-01T02:19:08;20.00;31.80
38746;DHT22;24488;0.000;0.000;2023-03-01T02:21:46;20.00;31.80
38746;DHT22;24488;0.000;0.000;2023-03-01T02:24:40;20.00;31.70
38746;DHT22;24488;0.000;0.000;2023-03-01T02:27:14;20.00;31.70
38746;DHT22;24488;0.000;0.000;2023-03-01T02:29:41;20.00;31.70
38746;DHT22;24488;0.000;0.000;2023-03-01T02:32:09;20.00;31.70
38746;DHT22;24488;0.000;0.000;2023-03-01T02:34:36;20.00;31.70
38746;DHT22;24488;0.000;0.000;2023-03-01T02:37:03;20.00;31.70
38746;DHT22;24488;0.000;0.000;2023-03-01T02:39:53;20.00;32.30
38746;DHT22;24488;0.000;0.000;2023-03-01T02:42:26;20.00;31.70
38746;DHT22;24488;0.000;0.000;2023-03-01T02:44:56;20.00;31.70
38746;DHT22;24488;0.000;0.000;2023-03-01T02:47:21;20.00;31.70
38746;DHT22;24488;0.000;0.000;2023-03-01T02:49:47;20.00;31.70
38746;DHT22;24488;0.000;0.000;2023-03-01T02:57:41;20.00;31.70
38746;DHT22;24488;0.000;0.000;2023-03-01T03:00:12;20.00;31.70
38746;DHT22;24488;0.000;0.000;2023-03-01T03:02:45;20.00;31.70
38746;DHT22;24488;0.000;0.000;2023-03-01T03:05:15;19.90;31.70
38746;DHT22;24488;0.000;0.000;2023-03-01T03:07:46;20.00;31.70
38746;DHT22;24488;0.000;0.000;2023-03-01T03:10:17;20.00;31.70
38746;DHT22;24488;0.000;0.000;2023-03-01T03:12:54;19.90;31.70
38746;DHT22;24488;0.000;0.000;2023-03-01T03:15:24;20.00;31.70
38746;DHT22;24488;0.000;0.000;2023-03-01T03:17:51;20.00;31.70
38746;DHT22;24488;0.000;0.000;2023-03-01T03:20:18;20.00;31.70
38746;DHT22;24488;0.000;0.000;2023-03-01T03:22:45;20.00;31.80
38746;DHT22;24488;0.000;0.000;2023-03-01T03:25:12;20.00;31.70
38746;DHT22;24488;0.000;0.000;2023-03-01T03:27:38;20.00;31.70
38746;DHT22;24488;0.000;0.000;2023-03-01T03:30:08;20.00;31.80
38746;DHT22;24488;0.000;0.000;2023-03-01T03:32:35;20.00;31.70
38746;DHT22;24488;0.000;0.000;2023-03-01T03:35:02;20.00;31.70
38746;DHT22;24488;0.000;0.000;2023-03-01T03:37:40;19.40;31.50
38746;DHT22;24488;0.000;0.000;2023-03-01T03:40:25;20.00;31.80
38746;DHT22;24488;0.000;0.000;2023-03-01T03:42:51;20.00;31.80
38746;DHT22;24488;0.000;0.000;2023-03-01T03:45:17;20.00;31.70
38746;DHT22;24488;0.000;0.000;2023-03-01T03:47:43;20.00;31.70
38746;DHT22;24488;0.000;0.000;2023-03-01T03:50:09;20.00;32.00
38746;DHT22;24488;0.000;0.000;2023-03-01T03:52:36;20.00;31.70
38746;DHT22;24488;0.000;0.000;2023-03-01T03:55:02;20.00;31.70
38746;DHT22;24488;0.000;0.000;2023-03-01T03:57:28;20.50;32.00
38746;DHT22;24488;0.000;0.000;2023-03-01T03:59:53;20.00;31.70
38746;DHT22;24488;0.000;0.000;2023-03-01T04:02:19;20.00;31.80
38746;DHT22;24488;0.000;0.000;2023-03-01T04:04:50;20.00;31.80
38746;DHT22;24488;0.000;0.000;2023-03-01T04:07:16;20.00;31.70
38746;DHT22;24488;0.000;0.000;2023-03-01T04:09:42;20.00;31.80
38746;DHT22;24488;0.000;0.000;2023-03-01T04:12:08;20.00;31.80
38746;DHT22;24488;0.000;0.000;2023-03-01T04:14:34;20.00;31.80
38746;DHT22;24488;0.000;0.000;2023-03-01T04:16:59;20.00;31.80
38746;DHT22;24488;0.000;0.000;2023-03-01T04:19:25;20.00;31.80
38746;DHT22;24488;0.000;0.000;2023-03-01T04:21:52;19.90;31.80
38746;DHT22;24488;0.000;0.000;2023-03-01T04:24:18;20.00;31.80
38746;DHT22;24488;0.000;0.000;2023-03-01T04:26:44;20.00;31.80
38746;DHT22;24488;0.000;0.000;2023-03-01T04:29:09;20.00;31.70
38746;DHT22;24488;0.000;0.000;2023-03-01T04:31:35;20.00;31.80
38746;DHT22;24488;0.000;0.000;2023-03-01T04:34:01;20.00;31.80
38746;DHT22;24488;0.000;0.000;2023-03-01T04:36:27;20.00;31.80
38746;DHT22;24488;0.000;0.000;2023-03-01T04:38:54;20.00;31.80
38746;DHT22;24488;0.000;0.000;2023-03-01T04:41:20;19.90;31.80
38746;DHT22;24488;0.000;0.000;2023-03-01T04:43:47;19.90;31.70
38746;DHT22;24488;0.000;0.000;2023-03-01T04:46:15;20.00;31.80
38746;DHT22;24488;0.000;0.000;2023-03-01T04:48:42;20.00;31.80
38746;DHT22;24488;0.000;0.000;2023-03-01T04:51:08;20.00;31.80
38746;DHT22;24488;0.000;0.000;2023-03-01T04:53:34;20.00;31.80
38746;DHT22;24488;0.000;0.000;2023-03-01T04:56:02;20.00;31.80
38746;DHT22;24488;0.000;0.000;2023-03-01T04:58:28;20.00;31.80
38746;DHT22;24488;0.000;0.000;2023-03-01T05:00:54;20.00;31.80
38746;DHT22;24488;0.000;0.000;2023-03-01T05:03:20;19.90;31.80
38746;DHT22;24488;0.000;0.000;2023-03-01T05:05:47;20.00;31.80
38746;DHT22;24488;0.000;0.000;2023-03-01T05:08:13;20.00;31.80
38746;DHT22;24488;0.000;0.000;2023-03-01T05:10:47;19.90;31.80
38746;DHT22;24488;0.000;0.000;2023-03-01T05:13:14;20.00;31.90
38746;DHT22;24488;0.000;0.000;2023-03-01T05:15:58;19.90;31.80
38746;DHT22;24488;0.000;0.000;2023-03-01T05:18:26;19.90;31.80
38746;DHT22;24488;0.000;0.000;2023-03-01T05:20:53;20.10;31.90
38746;DHT22;24488;0.000;0.000;2023-03-01T05:23:26;19.90;31.80
38746;DHT22;24488;0.000;0.000;2023-03-01T05:25:52;19.90;31.80
38746;DHT22;24488;0.000;0.000;2023-03-01T05:28:18;19.90;31.80
38746;DHT22;24488;0.000;0.000;2023-03-01T05:30:44;19.90;31.80
38746;DHT22;24488;0.000;0.000;2023-03-01T05:33:10;19.60;31.60
38746;DHT22;24488;0.000;0.000;2023-03-01T05:35:41;19.90;31.80
38746;DHT22;24488;0.000;0.000;2023-03-01T05:38:12;19.90;31.80
38746;DHT22;24488;0.000;0.000;2023-03-01T05:40:41;19.90;31.80
38746;DHT22;24488;0.000;0.000;2023-03-01T05:43:09;19.90;31.80
38746;DHT22;24488;0.000;0.000;2023-03-01T05:45:35;19.90;31.80
38746;DHT22;24488;0.000;0.000;2023-03-01T05:48:02;19.90;31.80
38746;DHT22;24488;0.000;0.000;2023-03-01T05:50:32;19.90;31.70
38746;DHT22;24488;0.000;0.000;2023-03-01T05:53:00;19.90;31.30
38746;DHT22;24488;0.000;0.000;2023-03-01T05:55:27;19.90;31.70
38746;DHT22;24488;0.000;0.000;2023-03-01T05:57:54;19.90;31.70
38746;DHT22;24488;0.000;0.000;2023-03-01T06:00:20;19.60;31.00
38746;DHT22;24488;0.000;0.000;2023-03-01T06:02:49;19.90;31.70
38746;DHT22;24488;0.000;0.000;2023-03-01T06:05:17;20.00;31.70
38746;DHT22;24488;0.000;0.000;2023-03-01T06:07:43;20.00;31.60
38746;DHT22;24488;0.000;0.000;2023-03-01T06:10:09;19.90;31.40
38746;DHT22;24488;0.000;0.000;2023-03-01T06:12:36;19.90;31.90
38746;DHT22;24488;0.000;0.000;2023-03-01T06:15:03;19.90;31.90
38746;DHT22;24488;0.000;0.000;2023-03-01T06:17:30;20.00;31.90
38746;DHT22;24488;0.000;0.000;2023-03-01T06:20:03;20.00;31.30
38746;DHT22;24488;0.000;0.000;2023-03-01T06:22:36;20.00;31.80
38746;DHT22;24488;0.000;0.000;2023-03-01T06:25:03;20.00;32.40
38746;DHT22;24488;0.000;0.000;2023-03-01T06:27:29;20.00;31.80
38746;DHT22;24488;0.000;0.000;2023-03-01T06:29:54;20.00;31.30
38746;DHT22;24488;0.000;0.000;2023-03-01T06:32:20;20.00;31.90
38746;DHT22;24488;0.000;0.000;2023-03-01T06:34:45;20.00;31.80
38746;DHT22;24488;0.000;0.000;2023-03-01T06:37:11;20.00;31.80
38746;DHT22;24488;0.000;0.000;2023-03-01T06:39:37;20.00;31.80
38746;DHT22;24488;0.000;0.000;2023-03-01T06:42:02;20.00;31.30
38746;DHT22;24488;0.000;0.000;2023-03-01T06:44:28;20.00;31.80
38746;DHT22;24488;0.000;0.000;2023-03-01T06:46:54;20.00;31.80
38746;DHT22;24488;0.000;0.000;2023-03-01T06:49:20;20.00;31.80
38746;DHT22;24488;0.000;0.000;2023-03-01T06:51:46;20.00;31.30
38746;DHT22;24488;0.000;0.000;2023-03-01T06:54:12;20.00;31.80
38746;DHT22;24488;0.000;0.000;2023-03-01T06:56:38;20.00;31.80
38746;DHT22;24488;0.000;0.000;2023-03-01T06:59:03;19.90;31.80
38746;DHT22;24488;0.000;0.000;2023-03-01T07:01:29;20.00;31.40
38746;DHT22;24488;0.000;0.000;2023-03-01T07:03:55;19.90;31.80
38746;DHT22;24488;0.000;0.000;2023-03-01T07:06:21;19.90;31.80
38746;DHT22;24488;0.000;0.000;2023-03-01T07:08:47;19.90;31.80
38746;DHT22;24488;0.000;0.000;2023-03-01T07:11:12;19.90;31.30
38746;DHT22;24488;0.000;0.000;2023-03-01T07:13:38;19.90;31.80
38746;DHT22;24488;0.000;0.000;2023-03-01T07:16:04;19.90;31.90
38746;DHT22;24488;0.000;0.000;2023-03-01T07:18:29;19.90;31.80
38746;DHT22;24488;0.000;0.000;2023-03-01T07:20:55;19.90;31.40
38746;DHT22;24488;0.000;0.000;2023-03-01T07:23:20;19.90;31.90
38746;DHT22;24488;0.000;0.000;2023-03-01T07:25:53;19.90;31.80
38746;DHT22;24488;0.000;0.000;2023-03-01T07:28:19;19.90;31.90
38746;DHT22;24488;0.000;0.000;2023-03-01T07:30:44;19.90;31.30
38746;DHT22;24488;0.000;0.000;2023-03-01T07:33:10;19.90;32.40
38746;DHT22;24488;0.000;0.000;2023-03-01T07:35:35;19.90;31.80
38746;DHT22;24488;0.000;0.000;2023-03-01T07:38:01;19.90;31.80
38746;DHT22;24488;0.000;0.000;2023-03-01T07:40:26;19.90;31.30
38746;DHT22;24488;0.000;0.000;2023-03-01T07:42:56;19.90;31.80
38746;DHT22;24488;0.000;0.000;2023-03-01T07:45:23;19.90;31.80
38746;DHT22;24488;0.000;0.000;2023-03-01T07:47:50;20.00;31.80
38746;DHT22;24488;0.000;0.000;2023-03-01T07:50:19;20.00;31.30
38746;DHT22;24488;0.000;0.000;2023-03-01T07:52:45;20.00;31.80
38746;DHT22;24488;0.000;0.000;2023-03-01T07:55:11;20.00;31.70
38746;DHT22;24488;0.000;0.000;2023-03-01T07:57:37;20.00;31.80
38746;DHT22;24488;0.000;0.000;2023-03-01T08:00:03;20.00;31.30
38746;DHT22;24488;0.000;0.000;2023-03-01T08:02:29;20.00;31.80
38746;DHT22;24488;0.000;0.000;2023-03-01T08:04:55;20.00;31.80
38746;DHT22;24488;0.000;0.000;2023-03-01T08:07:20;20.00;31.80
38746;DHT22;24488;0.000;0.000;2023-03-01T08:09:46;20.00;31.70
38746;DHT22;24488;0.000;0.000;2023-03-01T08:12:11;20.00;31.30
38746;DHT22;24488;0.000;0.000;2023-03-01T08:14:37;20.00;31.80
38746;DHT22;24488;0.000;0.000;2023-03-01T08:17:02;19.90;31.80
38746;DHT22;24488;0.000;0.000;2023-03-01T08:19:28;20.00;31.80
38746;DHT22;24488;0.000;0.000;2023-03-01T08:21:54;20.00;31.30
38746;DHT22;24488;0.000;0.000;2023-03-01T08:24:20;20.00;31.80
38746;DHT22;24488;0.000;0.000;2023-03-01T08:26:45;19.90;31.70
38746;DHT22;24488;0.000;0.000;2023-03-01T08:29:11;20.00;31.80
38746;DHT22;24488;0.000;0.000;2023-03-01T08:31:38;19.90;31.30
38746;DHT22;24488;0.000;0.000;2023-03-01T08:34:06;19.90;31.80
38746;DHT22;24488;0.000;0.000;2023-03-01T08:36:35;19.90;31.80
38746;DHT22;24488;0.000;0.000;2023-03-01T08:39:02;19.90;31.80
38746;DHT22;24488;0.000;0.000;2023-03-01T08:41:28;19.90;31.30
38746;DHT22;24488;0.000;0.000;2023-03-01T08:43:54;19.90;31.80
38746;DHT22;24488;0.000;0.000;2023-03-01T08:46:42;19.90;31.80
38746;DHT22;24488;0.000;0.000;2023-03-01T08:49:12;19.90;31.80
38746;DHT22;24488;0.000;0.000;2023-03-01T08:51:39;19.90;31.30
38746;DHT22;24488;0.000;0.000;2023-03-01T08:54:12;19.90;31.90
38746;DHT22;24488;0.000;0.000;2023-03-01T08:56:40;19.90;31.80
38746;DHT22;24488;0.000;0.000;2023-03-01T08:59:06;19.90;32.40
38746;DHT22;24488;0.000;0.000;2023-03-01T09:01:32;19.90;31.30
38746;DHT22;24488;0.000;0.000;2023-03-01T09:03:57;19.90;31.80
38746;DHT22;24488;0.000;0.000;2023-03-01T09:06:23;19.90;31.80
38746;DHT22;24488;0.000;0.000;2023-03-01T09:08:49;19.90;31.80
38746;DHT22;24488;0.000;0.000;2023-03-01T09:11:20;19.90;31.30
38746;DHT22;24488;0.000;0.000;2023-03-01T09:13:46;19.90;31.80
38746;DHT22;24488;0.000;0.000;2023-03-01T09:16:13;19.90;31.70
38746;DHT22;24488;0.000;0.000;2023-03-01T09:18:40;19.90;31.70
38746;DHT22;24488;0.000;0.000;2023-03-01T09:21:12;19.90;31.30
38746;DHT22;24488;0.000;0.000;2023-03-01T09:23:40;19.90;31.70
38746;DHT22;24488;0.000;0.000;2023-03-01T09:26:13;19.90;31.70
38746;DHT22;24488;0.000;0.000;2023-03-01T09:28:41;19.90;31.70
38746;DHT22;24488;0.000;0.000;2023-03-01T09:31:07;19.90;31.20
38746;DHT22;24488;0.000;0.000;2023-03-01T09:33:33;20.00;31.80
38746;DHT22;24488;0.000;0.000;2023-03-01T09:36:00;19.90;31.70
38746;DHT22;24488;0.000;0.000;2023-03-01T09:38:27;20.00;31.80
38746;DHT22;24488;0.000;0.000;2023-03-01T09:40:53;19.90;31.30
38746;DHT22;24488;0.000;0.000;2023-03-01T09:43:21;19.90;31.70
38746;DHT22;24488;0.000;0.000;2023-03-01T09:45:51;20.00;31.70
38746;DHT22;24488;0.000;0.000;2023-03-01T09:48:19;20.00;31.80
38746;DHT22;24488;0.000;0.000;2023-03-01T09:50:48;20.00;31.30
38746;DHT22;24488;0.000;0.000;2023-03-01T09:53:16;19.80;31.70
38746;DHT22;24488;0.000;0.000;2023-03-01T09:55:51;20.00;31.80
38746;DHT22;24488;0.000;0.000;2023-03-01T10:09:40;19.90;31.90
38746;DHT22;24488;0.000;0.000;2023-03-01T10:12:11;19.90;31.40
38746;DHT22;24488;0.000;0.000;2023-03-01T10:14:43;19.90;31.90
38746;DHT22;24488;0.000;0.000;2023-03-01T10:19:51;19.90;31.80
38746;DHT22;24488;0.000;0.000;2023-03-01T10:22:21;19.90;31.30
38746;DHT22;24488;0.000;0.000;2023-03-01T10:24:48;19.90;31.80
38746;DHT22;24488;0.000;0.000;2023-03-01T10:29:48;19.90;31.80
38746;DHT22;24488;0.000;0.000;2023-03-01T10:32:19;19.90;31.30
38746;DHT22;24488;0.000;0.000;2023-03-01T10:34:47;19.90;31.80
38746;DHT22;24488;0.000;0.000;2023-03-01T10:39:54;19.90;31.80
38746;DHT22;24488;0.000;0.000;2023-03-01T10:42:28;19.90;31.20
38746;DHT22;24488;0.000;0.000;2023-03-01T10:44:55;19.90;31.80
38746;DHT22;24488;0.000;0.000;2023-03-01T10:47:22;20.00;32.00
38746;DHT22;24488;0.000;0.000;2023-03-01T10:49:51;20.10;32.10
38746;DHT22;24488;0.000;0.000;2023-03-01T10:52:21;20.10;31.60
38746;DHT22;24488;0.000;0.000;2023-03-01T10:54:59;20.10;32.20
38746;DHT22;24488;0.000;0.000;2023-03-01T10:57:32;20.10;32.20
38746;DHT22;24488;0.000;0.000;2023-03-01T11:03:10;20.20;32.00
38746;DHT22;24488;0.000;0.000;2023-03-01T11:05:50;20.20;32.50
38746;DHT22;24488;0.000;0.000;2023-03-01T11:08:30;20.20;32.50
38746;DHT22;24488;0.000;0.000;2023-03-01T11:11:06;20.30;32.60
38746;DHT22;24488;0.000;0.000;2023-03-01T11:13:56;20.30;32.20
38746;DHT22;24488;0.000;0.000;2023-03-01T11:16:23;20.30;32.70
38746;DHT22;24488;0.000;0.000;2023-03-01T11:19:21;20.30;32.50
38746;DHT22;24488;0.000;0.000;2023-03-01T11:24:26;20.40;32.70
38746;DHT22;24488;0.000;0.000;2023-03-01T11:26:59;20.50;32.70
38746;DHT22;24488;0.000;0.000;2023-03-01T11:29:42;20.50;32.70
38746;DHT22;24488;0.000;0.000;2023-03-01T11:32:13;20.50;32.10
38746;DHT22;24488;0.000;0.000;2023-03-01T11:34:54;20.50;32.60
38746;DHT22;24488;0.000;0.000;2023-03-01T11:37:32;20.50;32.60
38746;DHT22;24488;0.000;0.000;2023-03-01T11:42:48;20.60;32.10
38746;DHT22;24488;0.000;0.000;2023-03-01T11:45:17;20.60;32.50
38746;DHT22;24488;0.000;0.000;2023-03-01T11:50:55;20.70;32.50
38746;DHT22;24488;0.000;0.000;2023-03-01T11:53:32;20.70;32.00
38746;DHT22;24488;0.000;0.000;2023-03-01T11:56:32;20.70;32.50
38746;DHT22;24488;0.000;0.000;2023-03-01T11:59:12;20.70;32.50
38746;DHT22;24488;0.000;0.000;2023-03-01T12:01:51;20.80;32.00
38746;DHT22;24488;0.000;0.000;2023-03-01T12:04:46;20.80;32.50
38746;DHT22;24488;0.000;0.000;2023-03-01T12:20:58;20.90;32.40
38746;DHT22;24488;0.000;0.000;2023-03-01T12:28:42;20.90;32.40
38746;DHT22;24488;0.000;0.000;2023-03-01T12:39:28;21.00;32.30
38746;DHT22;24488;0.000;0.000;2023-03-01T12:47:26;21.00;32.30
38746;DHT22;24488;0.000;0.000;2023-03-01T12:50:05;21.00;32.30
38746;DHT22;24488;0.000;0.000;2023-03-01T12:52:39;21.10;31.80
38746;DHT22;24488;0.000;0.000;2023-03-01T12:55:08;21.10;32.30
38746;DHT22;24488;0.000;0.000;2023-03-01T13:17:47;21.10;32.20
38746;DHT22;24488;0.000;0.000;2023-03-01T13:20:14;21.20;32.20
38746;DHT22;24488;0.000;0.000;2023-03-01T13:22:43;21.20;31.70
38746;DHT22;24488;0.000;0.000;2023-03-01T13:25:12;21.20;32.20
38746;DHT22;24488;0.000;0.000;2023-03-01T13:27:40;21.20;32.20
38746;DHT22;24488;0.000;0.000;2023-03-01T13:30:11;21.20;32.20
38746;DHT22;24488;0.000;0.000;2023-03-01T13:35:48;21.20;32.20
38746;DHT22;24488;0.000;0.000;2023-03-01T13:41:13;21.20;31.70
38746;DHT22;24488;0.000;0.000;2023-03-01T13:43:42;21.20;32.10
38746;DHT22;24488;0.000;0.000;2023-03-01T13:46:10;21.30;32.20
38746;DHT22;24488;0.000;0.000;2023-03-01T13:48:44;21.30;32.20
38746;DHT22;24488;0.000;0.000;2023-03-01T13:51:11;21.30;31.60
38746;DHT22;24488;0.000;0.000;2023-03-01T13:53:42;21.30;32.10
38746;DHT22;24488;0.000;0.000;2023-03-01T13:56:11;21.30;32.10
38746;DHT22;24488;0.000;0.000;2023-03-01T13:58:51;21.30;32.10
38746;DHT22;24488;0.000;0.000;2023-03-01T14:03:55;21.30;32.10
38746;DHT22;24488;0.000;0.000;2023-03-01T14:06:21;21.30;32.10
38746;DHT22;24488;0.000;0.000;2023-03-01T14:08:51;21.30;32.10
38746;DHT22;24488;0.000;0.000;2023-03-01T14:19:54;21.40;32.10
38746;DHT22;24488;0.000;0.000;2023-03-01T14:22:22;21.40;31.60
38746;DHT22;24488;0.000;0.000;2023-03-01T14:24:51;21.40;32.10
38746;DHT22;24488;0.000;0.000;2023-03-01T14:27:19;21.40;32.00
38746;DHT22;24488;0.000;0.000;2023-03-01T14:29:56;21.40;32.10
38746;DHT22;24488;0.000;0.000;2023-03-01T14:32:26;21.40;31.60
38746;DHT22;24488;0.000;0.000;2023-03-01T14:34:53;21.40;32.70
38746;DHT22;24488;0.000;0.000;2023-03-01T14:37:30;21.40;32.00
38746;DHT22;24488;0.000;0.000;2023-03-01T14:40:00;21.40;32.00
38746;DHT22;24488;0.000;0.000;2023-03-01T14:42:30;21.40;31.60
38746;DHT22;24488;0.000;0.000;2023-03-01T14:44:59;21.40;32.00
38746;DHT22;24488;0.000;0.000;2023-03-01T14:47:27;21.40;32.00
38746;DHT22;24488;0.000;0.000;2023-03-01T14:50:17;21.40;32.00
38746;DHT22;24488;0.000;0.000;2023-03-01T14:52:44;21.40;31.60
38746;DHT22;24488;0.000;0.000;2023-03-01T14:55:18;21.50;32.10
38746;DHT22;24488;0.000;0.000;2023-03-01T14:57:47;21.40;32.00
38746;DHT22;24488;0.000;0.000;2023-03-01T15:00:27;21.40;32.00
38746;DHT22;24488;0.000;0.000;2023-03-01T15:02:55;21.40;31.50
38746;DHT22;24488;0.000;0.000;2023-03-01T15:05:40;21.50;32.10
38746;DHT22;24488;0.000;0.000;2023-03-01T15:08:07;21.50;32.00
38746;DHT22;24488;0.000;0.000;2023-03-01T15:10:34;21.50;32.70
38746;DHT22;24488;0.000;0.000;2023-03-01T15:13:13;21.50;31.60
38746;DHT22;24488;0.000;0.000;2023-03-01T15:15:47;21.50;32.10
38746;DHT22;24488;0.000;0.000;2023-03-01T15:18:19;21.50;32.00
38746;DHT22;24488;0.000;0.000;2023-03-01T15:20:46;21.50;32.00
38746;DHT22;24488;0.000;0.000;2023-03-01T15:23:18;21.50;31.50
38746;DHT22;24488;0.000;0.000;2023-03-01T15:25:46;21.50;32.10
38746;DHT22;24488;0.000;0.000;2023-03-01T15:28:17;21.50;32.00
38746;DHT22;24488;0.000;0.000;2023-03-01T15:30:45;21.50;32.00
38746;DHT22;24488;0.000;0.000;2023-03-01T15:33:18;21.50;31.50
38746;DHT22;24488;0.000;0.000;2023-03-01T15:35:53;21.60;32.00
38746;DHT22;24488;0.000;0.000;2023-03-01T15:43:52;21.50;32.00
38746;DHT22;24488;0.000;0.000;2023-03-01T15:46:22;21.60;32.00
38746;DHT22;24488;0.000;0.000;2023-03-01T15:48:53;21.60;32.00
38746;DHT22;24488;0.000;0.000;2023-03-01T15:51:23;21.60;31.60
38746;DHT22;24488;0.000;0.000;2023-03-01T15:53:54;21.60;32.10
38746;DHT22;24488;0.000;0.000;2023-03-01T15:56:19;21.70;32.10
38746;DHT22;24488;0.000;0.000;2023-03-01T15:58:45;21.60;32.00
38746;DHT22;24488;0.000;0.000;2023-03-01T16:03:38;21.60;31.60
38746;DHT22;24488;0.000;0.000;2023-03-01T16:06:03;21.60;32.00
38746;DHT22;24488;0.000;0.000;2023-03-01T16:08:29;21.60;32.00
38746;DHT22;24488;0.000;0.000;2023-03-01T16:10:54;21.60;32.00
38746;DHT22;24488;0.000;0.000;2023-03-01T16:13:20;21.60;31.50
38746;DHT22;24488;0.000;0.000;2023-03-01T16:15:46;21.60;32.00
38746;DHT22;24488;0.000;0.000;2023-03-01T16:18:11;21.60;32.00
38746;DHT22;24488;0.000;0.000;2023-03-01T16:20:37;21.60;32.00
38746;DHT22;24488;0.000;0.000;2023-03-01T16:23:04;21.60;31.50
38746;DHT22;24488;0.000;0.000;2023-03-01T16:25:31;21.70;32.10
38746;DHT22;24488;0.000;0.000;2023-03-01T16:27:57;21.70;32.00
38746;DHT22;24488;0.000;0.000;2023-03-01T16:30:25;21.70;32.10
38746;DHT22;24488;0.000;0.000;2023-03-01T16:32:50;21.70;31.60
38746;DHT22;24488;0.000;0.000;2023-03-01T16:35:17;21.70;32.00
38746;DHT22;24488;0.000;0.000;2023-03-01T16:37:45;21.60;32.00
38746;DHT22;24488;0.000;0.000;2023-03-01T16:40:19;21.60;32.00
38746;DHT22;24488;0.000;0.000;2023-03-01T16:42:46;21.70;31.50
38746;DHT22;24488;0.000;0.000;2023-03-01T16:45:13;21.70;32.00
38746;DHT22;24488;0.000;0.000;2023-03-01T16:47:38;21.70;32.00
38746;DHT22;24488;0.000;0.000;2023-03-01T16:50:04;21.70;32.00
38746;DHT22;24488;0.000;0.000;2023-03-01T16:52:30;21.70;31.50
38746;DHT22;24488;0.000;0.000;2023-03-01T16:54:55;21.80;32.00
38746;DHT22;24488;0.000;0.000;2023-03-01T16:57:21;21.70;32.00
38746;DHT22;24488;0.000;0.000;2023-03-01T16:59:47;21.70;32.00
38746;DHT22;24488;0.000;0.000;2023-03-01T17:02:16;21.70;31.50
38746;DHT22;24488;0.000;0.000;2023-03-01T17:04:45;21.70;32.00
38746;DHT22;24488;0.000;0.000;2023-03-01T17:07:10;21.70;32.00
38746;DHT22;24488;0.000;0.000;2023-03-01T17:09:36;21.70;32.00
38746;DHT22;24488;0.000;0.000;2023-03-01T17:12:05;21.70;31.50
38746;DHT22;24488;0.000;0.000;2023-03-01T17:14:31;21.70;32.00
38746;DHT22;24488;0.000;0.000;2023-03-01T17:16:56;21.70;32.00
38746;DHT22;24488;0.000;0.000;2023-03-01T17:19:22;21.70;31.60
38746;DHT22;24488;0.000;0.000;2023-03-01T17:21:48;21.70;31.40
38746;DHT22;24488;0.000;0.000;2023-03-01T17:24:13;21.70;31.90
38746;DHT22;24488;0.000;0.000;2023-03-01T17:26:39;21.80;32.00
38746;DHT22;24488;0.000;0.000;2023-03-01T17:29:05;21.70;32.00
38746;DHT22;24488;0.000;0.000;2023-03-01T17:31:31;21.80;31.50
38746;DHT22;24488;0.000;0.000;2023-03-01T17:33:58;21.80;31.90
38746;DHT22;24488;0.000;0.000;2023-03-01T17:36:23;21.80;31.90
38746;DHT22;24488;0.000;0.000;2023-03-01T17:38:50;21.80;31.90
38746;DHT22;24488;0.000;0.000;2023-03-01T17:41:16;21.80;31.50
38746;DHT22;24488;0.000;0.000;2023-03-01T17:43:43;21.80;32.00
38746;DHT22;24488;0.000;0.000;2023-03-01T17:46:09;21.80;32.00
38746;DHT22;24488;0.000;0.000;2023-03-01T17:48:35;21.80;32.00
38746;DHT22;24488;0.000;0.000;2023-03-01T17:51:06;21.90;32.00